Terminal Aerodrome Forecast
Issued by NWS

Home | Current Version | Previous Version | Text Only | Print | Product List | Glossary On
Versions: 1 2 3 4 5 6 7 8 9 10 11 12 13 14
000
FTAK31 PANC 011738
TAFAGK
TAF
PAGK 011738Z 0118/0218 16007KT P6SM BKN060 BKN110
      TEMPO 0120/0124 16015G25KT
     FM020000 16015G25KT P6SM SCT050 BKN080
     FM020600 16008KT P6SM FEW060 BKN100
     FM020900 VRB03KT P6SM VCSH BKN060=

USA.gov is the U.S. government's official web portal to all federal, state and local government web resources and services.